Time;durP1;ratioP1;P1;durP2;ratioP2;P2;SDS_P1;SDS_P2;PMS_P1;PMS_P2;Temp;Humidity;BMP_temperature;BMP_pressure;BME280_temperature;BME280_humidity;BME280_pressure;Samples;Min_cycle;Max_cycle;Signal;HPM_P1;HPM_P2
2023/04/20 00:02:01;;;;;;;7.50;7.00;;;;;;;11.67;74.56;94684.38;5007709;28;20200;-62
2023/04/20 00:04:28;;;;;;;8.30;7.50;;;;;;;11.62;74.24;94691.41;5006603;28;20310;-62
2023/04/20 00:06:57;;;;;;;7.93;7.28;;;;;;;11.62;74.43;94690.56;5006951;28;20333;-62
2023/04/20 00:09:24;;;;;;;8.70;8.00;;;;;;;11.67;74.66;94688.63;5007445;28;20676;-60
2023/04/20 00:11:51;;;;;;;9.05;8.25;;;;;;;11.63;75.21;94679.50;5007000;28;20212;-62
2023/04/20 00:14:18;;;;;;;8.82;7.47;;;;;;;11.67;74.90;94683.53;5006842;28;20203;-63
2023/04/20 00:16:45;;;;;;;8.55;7.63;;;;;;;11.62;75.64;94677.84;5007382;28;20779;-61
2023/04/20 00:19:12;;;;;;;8.45;7.75;;;;;;;11.64;75.73;94673.50;5009254;28;20734;-64
2023/04/20 00:21:38;;;;;;;8.25;7.60;;;;;;;11.69;75.66;94671.56;5007387;28;20236;-64
2023/04/20 00:24:07;;;;;;;8.32;7.57;;;;;;;11.64;75.90;94678.56;5007717;28;20215;-62
2023/04/20 00:26:34;;;;;;;7.90;7.07;;;;;;;11.64;75.92;94678.56;5008133;28;20208;-62
2023/04/20 00:29:00;;;;;;;8.30;7.50;;;;;;;11.73;74.45;94675.63;5008479;28;20223;-64
2023/04/20 00:31:27;;;;;;;8.55;7.72;;;;;;;11.74;74.55;94682.38;5008130;28;20214;-61
2023/04/20 00:33:54;;;;;;;7.60;6.90;;;;;;;11.73;74.67;94678.19;5008657;28;20257;-64
2023/04/20 00:36:21;;;;;;;8.75;7.90;;;;;;;11.76;74.44;94678.06;5006201;28;20293;-63
2023/04/20 00:38:47;;;;;;;8.48;7.88;;;;;;;11.84;73.93;94674.31;5006447;28;20634;-62
2023/04/20 00:41:16;;;;;;;7.55;7.05;;;;;;;11.94;74.14;94677.25;5007878;28;20211;-60
2023/04/20 00:43:50;;;;;;;6.97;6.43;;;;;;;11.82;73.96;94673.56;5007588;28;20210;-62
2023/04/20 00:46:17;;;;;;;7.63;7.03;;;;;;;11.82;74.00;94677.81;5006883;28;20616;-63
2023/04/20 00:48:45;;;;;;;7.22;6.68;;;;;;;11.87;72.51;94673.34;5005831;28;20219;-63
2023/04/20 00:51:12;;;;;;;7.57;6.90;;;;;;;11.97;71.20;94674.59;5008295;28;20393;-63
2023/04/20 00:53:40;;;;;;;8.40;7.38;;;;;;;11.97;71.55;94676.28;5007421;28;20673;-62
2023/04/20 00:56:07;;;;;;;7.82;7.05;;;;;;;11.97;72.18;94668.66;5007234;28;20685;-62
2023/04/20 00:58:37;;;;;;;10.52;6.72;;;;;;;11.84;71.61;94651.41;5006290;28;21196;-62
2023/04/20 01:01:04;;;;;;;7.03;6.50;;;;;;;11.92;70.78;94663.75;5006958;28;20222;-62
2023/04/20 01:03:31;;;;;;;7.95;6.93;;;;;;;11.90;71.52;94660.47;5007495;28;20216;-61
2023/04/20 01:05:58;;;;;;;8.40;6.95;;;;;;;11.83;71.28;94671.84;5007252;28;20299;-63
2023/04/20 01:08:26;;;;;;;7.60;6.90;;;;;;;11.86;71.88;94670.00;5007091;28;20345;-63
2023/04/20 01:10:53;;;;;;;7.93;6.88;;;;;;;11.83;71.99;94664.19;5007659;28;20703;-61
2023/04/20 01:13:19;;;;;;;9.50;7.68;;;;;;;11.78;72.48;94661.03;5007074;28;20289;-63
2023/04/20 01:15:48;;;;;;;8.75;7.80;;;;;;;11.87;72.09;94665.72;5007352;28;20531;-63
2023/04/20 01:18:16;;;;;;;8.48;7.78;;;;;;;11.87;72.25;94661.47;5006888;28;21697;-62
2023/04/20 01:20:43;;;;;;;8.35;7.55;;;;;;;11.83;72.54;94659.94;5005236;28;20566;-62
2023/04/20 01:23:12;;;;;;;8.20;7.45;;;;;;;11.83;72.31;94662.47;5008063;28;20244;-61
2023/04/20 01:25:38;;;;;;;7.97;7.28;;;;;;;11.79;71.67;94662.69;5007908;28;20235;-60
2023/04/20 01:28:05;;;;;;;7.75;7.20;;;;;;;11.83;71.56;94661.66;5006729;28;20322;-63
2023/04/20 01:30:32;;;;;;;7.15;6.47;;;;;;;11.82;71.03;94657.47;5008022;28;20211;-61
2023/04/20 01:32:59;;;;;;;9.02;7.60;;;;;;;11.92;70.34;94663.75;5006444;28;20291;-61
2023/04/20 01:35:26;;;;;;;7.72;7.03;;;;;;;11.95;71.19;94650.91;5010769;28;21060;-62
2023/04/20 01:37:52;;;;;;;8.55;7.72;;;;;;;11.97;71.11;94649.13;5009639;28;20232;-64
2023/04/20 01:40:20;;;;;;;7.07;6.60;;;;;;;11.86;71.40;94643.69;5011023;28;20234;-62
2023/04/20 01:42:47;;;;;;;9.13;7.40;;;;;;;11.80;71.67;94649.88;5010989;28;20292;-63
2023/04/20 01:45:14;;;;;;;8.05;7.28;;;;;;;11.72;71.61;94651.06;5011406;28;20250;-62
2023/04/20 01:47:40;;;;;;;9.43;7.55;;;;;;;11.65;71.59;94642.06;5010770;28;20788;-63
2023/04/20 01:50:08;;;;;;;8.55;7.75;;;;;;;11.52;71.58;94650.25;5011424;28;20258;-62
2023/04/20 01:52:35;;;;;;;8.32;7.28;;;;;;;11.50;72.99;94646.94;5010634;28;20295;-64
2023/04/20 01:55:01;;;;;;;9.98;7.30;;;;;;;11.35;73.30;94642.53;5011557;28;20273;-60
2023/04/20 01:57:29;;;;;;;10.73;7.53;;;;;;;11.31;73.50;94641.00;5009877;28;20653;-63
2023/04/20 01:59:56;;;;;;;7.40;6.90;;;;;;;11.31;73.45;94635.91;5009732;28;20914;-63
2023/04/20 02:02:23;;;;;;;7.97;7.28;;;;;;;11.37;73.69;94650.09;5011099;28;20271;-62
2023/04/20 02:04:50;;;;;;;13.55;8.60;;;;;;;11.38;73.21;94642.41;5011485;28;20298;-63
2023/04/20 02:07:16;;;;;;;8.75;7.97;;;;;;;11.35;72.61;94642.53;5009934;28;20262;-60
2023/04/20 02:09:43;;;;;;;8.43;7.63;;;;;;;11.29;73.00;94641.97;5010921;28;20303;-63
2023/04/20 02:12:10;;;;;;;8.35;7.32;;;;;;;11.29;73.20;94635.16;5010675;28;20409;-62
2023/04/20 02:14:38;;;;;;;12.32;7.60;;;;;;;11.36;73.26;94640.81;5010565;28;20299;-63
2023/04/20 02:17:05;;;;;;;8.98;8.07;;;;;;;11.40;73.36;94640.59;5010319;28;20235;-64
2023/04/20 02:19:31;;;;;;;7.55;6.93;;;;;;;11.35;73.37;94644.25;5010066;28;20291;-61
2023/04/20 02:21:58;;;;;;;8.65;7.38;;;;;;;11.36;73.71;94646.72;5009986;28;20838;-60
2023/04/20 02:24:25;;;;;;;14.82;7.30;;;;;;;11.41;72.62;94643.97;5010017;28;20243;-62
2023/04/20 02:26:51;;;;;;;9.05;7.60;;;;;;;11.45;71.77;94648.03;5010385;28;20303;-63
2023/04/20 02:29:18;;;;;;;8.02;7.40;;;;;;;11.40;72.40;94645.66;5009678;28;20683;-63
2023/04/20 02:31:46;;;;;;;7.95;7.25;;;;;;;11.43;72.70;94645.53;5010675;28;20262;-60
2023/04/20 02:34:13;;;;;;;7.93;7.20;;;;;;;11.50;71.41;94641.84;5010288;28;20299;-62
2023/04/20 02:36:40;;;;;;;8.25;7.45;;;;;;;11.50;71.41;94641.84;5010013;28;20673;-64
2023/04/20 02:39:06;;;;;;;7.95;7.25;;;;;;;11.46;71.94;94640.31;5009649;28;20287;-62
2023/04/20 02:41:33;;;;;;;10.05;7.72;;;;;;;11.52;72.22;94646.88;5009877;28;20265;-61
2023/04/20 02:44:00;;;;;;;7.38;6.88;;;;;;;11.58;72.65;94644.06;5010751;28;20239;-60
2023/04/20 02:46:27;;;;;;;7.35;6.72;;;;;;;11.72;71.74;94640.91;5009797;28;20290;-63
2023/04/20 02:48:55;;;;;;;11.93;7.68;;;;;;;11.69;72.36;94646.13;5010013;28;20310;-62
2023/04/20 02:51:22;;;;;;;8.13;7.25;;;;;;;11.76;72.28;94632.22;5009479;28;20746;-62
2023/04/20 02:53:48;;;;;;;7.75;7.03;;;;;;;11.66;71.97;94641.16;5009256;28;20755;-63
2023/04/20 02:56:15;;;;;;;8.48;7.72;;;;;;;11.65;71.98;94639.50;5009189;28;20682;-61
2023/04/20 02:58:42;;;;;;;8.85;7.07;;;;;;;11.67;71.75;94637.72;5009150;28;20303;-63
2023/04/20 03:01:09;;;;;;;7.70;6.95;;;;;;;11.67;71.37;94635.19;5008799;28;20239;-62
2023/04/20 03:03:35;;;;;;;8.07;7.28;;;;;;;11.68;71.62;94639.38;5010658;28;20265;-61
2023/04/20 03:06:04;;;;;;;11.57;7.07;;;;;;;11.70;71.38;94640.13;5010904;28;20299;-62
2023/04/20 03:08:31;;;;;;;8.18;7.50;;;;;;;11.72;71.46;94636.63;5010164;28;20295;-64
2023/04/20 03:10:57;;;;;;;9.88;7.30;;;;;;;11.73;71.63;94645.09;5009725;28;20231;-62
2023/04/20 03:13:24;;;;;;;11.43;7.47;;;;;;;11.80;71.01;94638.88;5008295;28;20235;-64
2023/04/20 03:15:51;;;;;;;8.55;7.57;;;;;;;11.82;70.89;94643.00;5007239;28;20564;-63
2023/04/20 03:18:17;;;;;;;7.60;7.00;;;;;;;11.77;71.19;94641.56;5007990;28;20220;-62
2023/04/20 03:20:44;;;;;;;7.47;6.88;;;;;;;11.73;71.42;94642.56;5007808;28;20291;-62
2023/04/20 03:23:12;;;;;;;7.70;7.00;;;;;;;11.84;70.97;94641.22;5008361;28;20301;-62
2023/04/20 03:25:39;;;;;;;8.77;7.88;;;;;;;11.79;70.47;94644.88;5007857;28;20672;-62
2023/04/20 03:28:06;;;;;;;7.30;6.70;;;;;;;11.76;71.09;94644.97;5007327;28;20342;-62
2023/04/20 03:30:32;;;;;;;9.70;7.35;;;;;;;11.91;70.17;94644.28;5008695;28;21863;-60
2023/04/20 03:32:59;;;;;;;7.53;6.80;;;;;;;11.84;70.04;94646.31;5008784;28;20292;-61
2023/04/20 03:35:26;;;;;;;10.55;7.60;;;;;;;11.75;70.55;94645.84;5009759;28;20214;-62
2023/04/20 03:37:53;;;;;;;8.45;7.63;;;;;;;11.68;70.93;94644.47;5008483;28;20302;-62
2023/04/20 03:40:21;;;;;;;8.30;7.50;;;;;;;11.69;71.25;94638.47;5009698;28;20235;-59
2023/04/20 03:42:47;;;;;;;6.95;6.45;;;;;;;11.72;71.50;94640.91;5009310;28;20413;-63
2023/04/20 03:45:15;;;;;;;10.68;7.22;;;;;;;11.82;71.28;94647.28;5009053;28;20599;-62
2023/04/20 03:47:42;;;;;;;8.18;7.47;;;;;;;11.72;71.23;94656.16;5009974;28;20294;-63
2023/04/20 03:50:10;;;;;;;11.60;7.13;;;;;;;11.73;71.31;94647.63;5009038;28;20721;-61
2023/04/20 03:52:36;;;;;;;9.98;8.25;;;;;;;11.75;70.58;94640.75;5009177;28;20227;-63
2023/04/20 03:55:03;;;;;;;24.23;15.30;;;;;;;11.76;71.08;94645.81;5008384;28;21036;-61
2023/04/20 03:57:33;;;;;;;19.45;13.10;;;;;;;11.84;71.07;94658.22;5006880;28;20305;-62
2023/04/20 03:59:59;;;;;;;12.00;10.90;;;;;;;11.88;70.92;94644.44;5008749;28;20820;-62
2023/04/20 04:02:27;;;;;;;10.23;9.07;;;;;;;11.87;71.21;94640.25;5009066;28;20262;-63
2023/04/20 04:04:53;;;;;;;12.40;7.45;;;;;;;11.92;71.04;94653.59;5008343;28;20283;-65
2023/04/20 04:07:20;;;;;;;7.88;7.28;;;;;;;12.01;70.88;94652.34;5008885;28;20263;-61
2023/04/20 04:09:47;;;;;;;8.57;7.72;;;;;;;11.91;70.63;94650.22;5008412;28;20270;-63
2023/04/20 04:12:13;;;;;;;14.50;7.15;;;;;;;11.88;70.71;94652.06;5008789;28;20355;-62
2023/04/20 04:14:41;;;;;;;8.82;7.95;;;;;;;11.88;70.77;94652.06;5007894;28;20211;-64
2023/04/20 04:17:08;;;;;;;8.57;7.75;;;;;;;11.87;70.34;94658.09;5008978;28;20290;-63
2023/04/20 04:19:35;;;;;;;9.02;8.30;;;;;;;11.92;70.16;94653.59;5008116;28;21413;-63
2023/04/20 04:22:02;;;;;;;13.68;7.65;;;;;;;12.12;69.28;94658.63;5008809;28;20285;-63
2023/04/20 04:24:28;;;;;;;7.88;7.18;;;;;;;12.08;69.91;94657.09;5008353;28;20732;-60
2023/04/20 04:26:57;;;;;;;12.68;7.35;;;;;;;11.98;70.16;94657.56;5008750;28;20290;-62
2023/04/20 04:29:24;;;;;;;33.70;22.20;;;;;;;11.93;70.41;94655.25;5008160;28;20331;-62
2023/04/20 04:31:52;;;;;;;15.00;11.07;;;;;;;11.92;70.57;94648.50;5008206;28;20214;-64
2023/04/20 04:34:19;;;;;;;9.85;8.07;;;;;;;12.12;69.14;94666.25;5008607;28;20285;-65
2023/04/20 04:36:46;;;;;;;7.57;6.97;;;;;;;12.27;69.27;94660.44;5008883;28;20295;-61
2023/04/20 04:39:14;;;;;;;8.75;7.78;;;;;;;12.22;68.77;94661.56;5008510;28;20195;-65
2023/04/20 04:41:40;;;;;;;15.02;12.13;;;;;;;12.29;69.36;94667.19;5008124;28;20749;-63
2023/04/20 04:44:07;;;;;;;9.85;8.95;;;;;;;12.25;68.81;94662.25;5007616;28;20231;-62
2023/04/20 04:46:35;;;;;;;9.02;8.27;;;;;;;12.13;69.49;94670.44;5007544;28;20196;-64
2023/04/20 04:49:04;;;;;;;11.88;8.82;;;;;;;12.02;70.14;94670.09;5007266;28;20232;-63
2023/04/20 04:51:32;;;;;;;11.93;8.82;;;;;;;12.07;70.01;94675.81;5008288;28;20229;-62
2023/04/20 04:53:58;;;;;;;10.43;9.38;;;;;;;12.07;70.30;94675.81;5007502;28;20580;-61
2023/04/20 04:56:25;;;;;;;16.88;10.13;;;;;;;12.11;70.63;94679.91;5007579;28;20235;-63
2023/04/20 04:58:52;;;;;;;15.15;11.23;;;;;;;12.14;70.40;94682.28;5008296;28;20283;-61
2023/04/20 05:01:18;;;;;;;10.98;9.45;;;;;;;12.15;70.27;94681.38;5007493;28;20267;-62
2023/04/20 05:03:45;;;;;;;11.27;8.85;;;;;;;12.21;69.84;94686.19;5007093;28;20257;-62
2023/04/20 05:06:13;;;;;;;12.32;9.73;;;;;;;12.31;70.11;94688.34;5007073;28;20291;-62
2023/04/20 05:08:40;;;;;;;8.95;8.15;;;;;;;12.45;68.55;94688.50;5007183;28;20683;-65
2023/04/20 05:11:07;;;;;;;10.93;8.38;;;;;;;12.43;67.82;94685.19;5007149;28;20294;-64
2023/04/20 05:13:34;;;;;;;9.18;8.02;;;;;;;12.40;68.10;94692.97;5007522;28;20207;-65
2023/04/20 05:16:01;;;;;;;9.90;9.00;;;;;;;12.44;67.75;94686.84;5009051;28;20206;-62
2023/04/20 05:18:27;;;;;;;8.60;7.90;;;;;;;12.49;67.43;94684.94;5008298;28;20294;-65
2023/04/20 05:20:54;;;;;;;10.40;9.27;;;;;;;12.56;68.43;94682.03;5007826;28;20269;-64
2023/04/20 05:23:22;;;;;;;9.02;8.13;;;;;;;12.55;67.93;94689.75;5006770;28;20778;-65
2023/04/20 05:25:49;;;;;;;9.68;8.68;;;;;;;12.50;67.72;94691.69;5007005;28;20258;-64
2023/04/20 05:28:16;;;;;;;11.05;9.95;;;;;;;12.37;68.15;94680.41;5007618;28;20270;-63
2023/04/20 05:30:43;;;;;;;17.00;9.90;;;;;;;12.46;68.21;94692.72;5008182;28;20220;-62
2023/04/20 05:33:10;;;;;;;10.27;9.30;;;;;;;12.49;67.44;94693.41;5007697;28;20716;-63
2023/04/20 05:35:39;;;;;;;10.25;9.32;;;;;;;12.49;67.75;94700.22;5007067;28;20257;-63
2023/04/20 05:38:05;;;;;;;13.77;9.00;;;;;;;12.69;67.32;94691.63;5007873;28;20223;-63
2023/04/20 05:40:34;;;;;;;11.65;9.15;;;;;;;12.76;67.26;94693.00;5006834;28;20273;-64
2023/04/20 05:43:01;;;;;;;10.05;9.02;;;;;;;12.78;66.86;94696.28;5008615;28;20204;-65
2023/04/20 05:45:27;;;;;;;10.27;9.20;;;;;;;12.79;66.98;94696.22;5005698;28;20395;-63
2023/04/20 05:47:54;;;;;;;10.55;8.88;;;;;;;12.79;66.53;94698.78;5007992;28;20223;-64
2023/04/20 05:50:22;;;;;;;12.10;10.27;;;;;;;12.66;66.39;94682.41;5007056;28;20262;-61
2023/04/20 05:52:48;;;;;;;10.30;9.35;;;;;;;12.82;66.54;94693.53;5008272;28;20208;-62
2023/04/20 05:55:15;;;;;;;14.73;8.65;;;;;;;12.77;66.60;94699.75;5007020;28;20223;-66
2023/04/20 05:57:43;;;;;;;11.40;9.52;;;;;;;12.81;66.64;94696.97;5008201;28;20355;-64
2023/04/20 06:00:12;;;;;;;10.18;9.18;;;;;;;12.90;67.42;94693.13;5005651;28;20315;-62
2023/04/20 06:02:40;;;;;;;14.02;9.70;;;;;;;12.86;67.50;94687.38;5004690;28;20325;-64
2023/04/20 06:05:08;;;;;;;11.63;10.35;;;;;;;13.02;67.75;94701.94;5005505;28;20362;-63
2023/04/20 06:07:35;;;;;;;10.85;9.85;;;;;;;13.04;67.03;94698.41;5006034;28;20235;-62
2023/04/20 06:10:02;;;;;;;11.45;9.95;;;;;;;13.11;66.61;94693.84;5006764;28;20373;-63
2023/04/20 06:12:29;;;;;;;12.45;10.50;;;;;;;13.19;67.02;94691.75;5006690;28;20246;-63
2023/04/20 06:14:58;;;;;;;10.45;9.50;;;;;;;13.14;67.27;94699.59;5006687;28;21003;-63
2023/04/20 06:17:25;;;;;;;13.65;11.32;;;;;;;13.21;66.76;94702.72;5007394;28;20928;-62
2023/04/20 06:19:52;;;;;;;11.10;10.20;;;;;;;13.29;66.64;94703.16;5008133;28;20215;-60
2023/04/20 06:22:19;;;;;;;11.57;10.45;;;;;;;13.29;66.81;94698.06;5012263;28;20299;-63
2023/04/20 06:24:46;;;;;;;14.05;10.70;;;;;;;13.28;67.71;94704.06;5007935;28;20275;-64
2023/04/20 06:27:13;;;;;;;14.57;11.05;;;;;;;13.30;67.29;94704.00;5010548;28;20223;-64
2023/04/20 06:29:40;;;;;;;16.17;11.88;;;;;;;13.35;67.43;94702.88;5009888;28;20308;-64
2023/04/20 06:32:08;;;;;;;16.75;12.27;;;;;;;13.65;67.44;94702.19;5011420;28;20208;-63
2023/04/20 06:34:35;;;;;;;13.63;11.63;;;;;;;13.53;66.99;94691.72;5008747;28;20334;-63
2023/04/20 06:37:02;;;;;;;11.85;10.77;;;;;;;13.58;67.11;94699.16;5007647;28;20728;-62
2023/04/20 06:39:28;;;;;;;14.35;11.60;;;;;;;13.61;66.78;94699.78;5010848;28;20208;-61
2023/04/20 06:41:55;;;;;;;15.65;11.27;;;;;;;13.66;66.47;94702.13;5010226;28;20723;-64
2023/04/20 06:44:22;;;;;;;19.98;14.50;;;;;;;13.54;66.58;94688.28;5010303;28;20203;-63
2023/04/20 06:46:49;;;;;;;26.70;14.43;;;;;;;13.67;66.44;94711.44;5009214;28;20827;-61
2023/04/20 06:49:17;;;;;;;16.45;13.95;;;;;;;13.68;67.86;94707.16;5010101;28;20285;-62
2023/04/20 06:51:43;;;;;;;15.52;13.07;;;;;;;13.53;68.66;94724.09;5010613;28;21243;-62
2023/04/20 06:54:10;;;;;;;18.70;13.70;;;;;;;13.45;70.22;94719.34;5010285;28;20675;-62
2023/04/20 06:56:37;;;;;;;17.98;13.75;;;;;;;13.30;70.87;94715.03;5009499;28;20298;-61
2023/04/20 06:59:03;;;;;;;17.23;13.23;;;;;;;13.26;70.73;94721.19;5011286;28;20346;-61
2023/04/20 07:01:30;;;;;;;13.90;12.20;;;;;;;13.22;71.09;94717.13;5010504;28;20292;-60
2023/04/20 07:03:57;;;;;;;13.80;12.40;;;;;;;13.26;70.63;94723.72;5010926;28;20210;-59
2023/04/20 07:06:26;;;;;;;15.70;13.40;;;;;;;13.39;70.48;94723.94;5009020;28;20709;-60
2023/04/20 07:08:53;;;;;;;14.45;12.57;;;;;;;13.50;70.72;94730.16;5009583;28;20287;-63
2023/04/20 07:11:20;;;;;;;13.30;11.52;;;;;;;13.74;69.51;94719.59;5009540;28;20693;-59
2023/04/20 07:13:46;;;;;;;13.63;12.02;;;;;;;13.91;68.82;94720.38;5010346;28;20286;-63
2023/04/20 07:16:15;;;;;;;17.70;13.13;;;;;;;14.19;68.59;94722.31;5009683;28;20760;-63
2023/04/20 07:18:42;;;;;;;13.57;11.45;;;;;;;14.58;67.47;94729.63;5010000;28;20211;-64
2023/04/20 07:21:09;;;;;;;14.82;11.82;;;;;;;14.81;65.68;94724.97;5009651;28;20200;-61
2023/04/20 07:23:37;;;;;;;14.90;12.38;;;;;;;15.08;65.25;94728.56;5009858;28;20250;-61
2023/04/20 07:26:04;;;;;;;18.25;13.35;;;;;;;15.53;63.12;94722.53;5008675;28;20231;-62
2023/04/20 07:28:30;;;;;;;15.98;11.88;;;;;;;16.03;61.97;94721.31;5009633;28;20303;-60
2023/04/20 07:30:58;;;;;;;17.27;11.65;;;;;;;16.62;59.12;94727.91;5009078;28;20374;-64
2023/04/20 07:33:25;;;;;;;12.90;10.98;;;;;;;17.19;58.00;94717.44;5009897;28;20211;-64
2023/04/20 07:35:51;;;;;;;13.02;10.02;;;;;;;17.61;56.11;94716.38;5009276;28;20212;-63
2023/04/20 07:38:18;;;;;;;12.02;10.82;;;;;;;18.50;53.64;94707.78;5009376;28;20295;-62
2023/04/20 07:40:46;;;;;;;15.35;10.90;;;;;;;19.20;51.30;94713.06;5010221;28;20294;-63
2023/04/20 07:43:13;;;;;;;12.30;10.10;;;;;;;19.73;50.25;94708.31;5009585;28;20232;-61
2023/04/20 07:45:40;;;;;;;15.15;9.35;;;;;;;20.24;48.34;94709.53;5009028;28;20346;-64
2023/04/20 07:48:08;;;;;;;10.88;9.88;;;;;;;20.77;46.70;94709.72;5009222;28;20213;-63
2023/04/20 07:50:35;;;;;;;13.82;10.20;;;;;;;21.51;45.20;94705.44;5008340;28;20234;-63
2023/04/20 07:53:01;;;;;;;10.20;9.00;;;;;;;22.51;43.24;94705.69;5009876;28;20292;-63
2023/04/20 07:55:28;;;;;;;10.30;9.35;;;;;;;22.23;42.58;94699.44;5008857;28;20719;-63
2023/04/20 07:57:57;;;;;;;10.00;9.00;;;;;;;22.59;41.74;94700.63;5009200;28;20227;-62
2023/04/20 08:00:24;;;;;;;9.10;8.50;;;;;;;23.86;39.63;94675.44;5007607;28;20344;-63
2023/04/20 08:02:51;;;;;;;9.68;8.88;;;;;;;24.74;37.85;94693.13;5009961;28;20571;-63
2023/04/20 08:05:18;;;;;;;10.15;9.10;;;;;;;24.13;38.50;94698.03;5008842;28;20767;-63
2023/04/20 08:07:44;;;;;;;9.80;9.00;;;;;;;22.99;40.18;94696.25;5009582;28;20231;-63
2023/04/20 08:10:11;;;;;;;10.50;8.95;;;;;;;21.89;42.25;94701.44;5008442;28;20258;-64
2023/04/20 08:12:38;;;;;;;11.15;10.18;;;;;;;20.69;44.97;94709.47;5009704;28;20365;-64
2023/04/20 08:15:08;;;;;;;9.98;9.18;;;;;;;19.53;47.68;94708.06;5008155;28;20251;-64
2023/04/20 08:17:35;;;;;;;10.30;9.45;;;;;;;18.48;49.46;94709.63;5008768;28;20294;-63
2023/04/20 08:20:04;;;;;;;8.98;8.38;;;;;;;17.80;52.03;94712.63;5007466;28;20290;-62
2023/04/20 08:22:32;;;;;;;10.82;9.95;;;;;;;17.48;53.74;94712.97;5009084;28;20211;-63
2023/04/20 08:24:58;;;;;;;10.25;9.30;;;;;;;17.40;54.41;94720.38;5008064;28;20208;-61
2023/04/20 08:27:28;;;;;;;10.95;9.68;;;;;;;17.42;54.61;94715.94;5008771;28;20825;-62
2023/04/20 08:29:55;;;;;;;12.50;10.65;;;;;;;17.36;53.56;94711.22;5008949;28;20227;-62
2023/04/20 08:32:25;;;;;;;12.57;11.00;;;;;;;17.36;53.17;94711.22;5008927;28;20334;-63
2023/04/20 08:34:52;;;;;;;11.23;10.23;;;;;;;17.40;53.30;94710.09;5009369;28;20294;-64
2023/04/20 08:37:19;;;;;;;14.38;10.13;;;;;;;17.44;54.10;94719.25;5008542;28;20226;-62
2023/04/20 08:39:45;;;;;;;10.15;9.38;;;;;;;17.43;52.73;94712.47;5008532;28;20199;-64
2023/04/20 08:42:12;;;;;;;10.00;9.05;;;;;;;17.36;52.92;94713.78;5008730;28;20303;-62
2023/04/20 08:44:39;;;;;;;10.82;9.73;;;;;;;17.18;53.43;94715.81;5007444;28;20307;-64
2023/04/20 08:47:08;;;;;;;10.45;9.55;;;;;;;16.87;53.63;94719.50;5007635;28;20235;-63
2023/04/20 08:49:39;;;;;;;11.10;9.95;;;;;;;16.53;55.15;94715.66;5008285;28;20318;-63
2023/04/20 08:52:06;;;;;;;12.38;10.68;;;;;;;16.25;56.27;94721.66;5007063;28;20204;-61
2023/04/20 08:54:33;;;;;;;12.13;10.48;;;;;;;16.15;56.51;94715.44;5008051;28;20204;-64
2023/04/20 08:57:00;;;;;;;10.73;9.63;;;;;;;16.05;56.04;94722.06;5007738;28;20670;-64
2023/04/20 08:59:27;;;;;;;10.18;9.35;;;;;;;15.98;57.00;94725.88;5008830;28;20268;-61
2023/04/20 09:01:54;;;;;;;11.90;10.75;;;;;;;15.94;56.48;94714.16;5007219;28;20250;-62
2023/04/20 09:04:22;;;;;;;12.07;10.95;;;;;;;15.80;56.94;94716.75;5008459;28;20243;-61
2023/04/20 09:06:53;;;;;;;12.32;11.18;;;;;;;15.81;56.59;94723.53;5007624;28;20327;-63
2023/04/20 09:09:21;;;;;;;11.70;10.63;;;;;;;16.04;56.34;94725.53;5007698;28;20287;-61
2023/04/20 09:12:01;;;;;;;10.55;9.63;;;;;;;16.33;56.20;94716.88;5007120;28;20337;-63
2023/04/20 09:14:28;;;;;;;10.38;9.57;;;;;;;16.34;55.80;94713.38;5008131;28;20231;-62
2023/04/20 09:17:00;;;;;;;10.85;9.85;;;;;;;16.60;54.83;94723.78;5007814;28;20238;-61
2023/04/20 09:19:28;;;;;;;12.25;11.15;;;;;;;16.90;54.04;94718.50;5008324;28;20214;-62
2023/04/20 09:21:58;;;;;;;10.70;9.68;;;;;;;17.18;54.13;94720.94;5007787;28;20204;-62
2023/04/20 09:24:31;;;;;;;10.65;9.75;;;;;;;17.51;53.70;94717.94;5006594;28;20685;-64
2023/04/20 09:26:58;;;;;;;9.75;8.95;;;;;;;18.39;51.33;94705.13;5007539;28;20610;-63
2023/04/20 09:29:25;;;;;;;10.63;9.63;;;;;;;19.37;48.59;94700.59;5006888;28;20299;-62
2023/04/20 09:31:52;;;;;;;10.38;8.65;;;;;;;20.04;45.53;94699.91;5008866;28;20234;-65
2023/04/20 09:34:19;;;;;;;9.90;9.10;;;;;;;20.82;44.25;94697.22;5006709;28;20239;-60
2023/04/20 09:36:49;;;;;;;9.65;8.68;;;;;;;21.37;43.93;94692.81;5008396;28;20227;-64
2023/04/20 09:39:19;;;;;;;11.57;8.65;;;;;;;21.70;43.86;94697.81;5007235;28;20235;-61
2023/04/20 09:41:48;;;;;;;10.27;8.13;;;;;;;22.30;41.85;94687.59;5008014;28;20310;-62
2023/04/20 09:44:16;;;;;;;8.65;7.85;;;;;;;22.66;40.38;94681.03;5006570;28;20239;-62
2023/04/20 09:46:43;;;;;;;10.23;9.15;;;;;;;22.71;40.69;94689.22;5007617;28;20243;-61
2023/04/20 09:49:12;;;;;;;10.40;9.38;;;;;;;22.96;40.77;94680.16;5005579;28;20836;-61
2023/04/20 09:51:43;;;;;;;10.10;9.38;;;;;;;23.39;39.34;94683.16;5007390;28;20261;-62
2023/04/20 09:54:11;;;;;;;10.70;9.70;;;;;;;23.38;39.62;94680.69;5007314;28;20265;-64
2023/04/20 09:56:40;;;;;;;15.43;9.35;;;;;;;23.26;39.38;94685.19;5010924;28;20294;-62
2023/04/20 09:59:08;;;;;;;9.00;8.30;;;;;;;23.10;39.53;94679.75;5012147;28;20231;-64
2023/04/20 10:01:36;;;;;;;9.10;8.23;;;;;;;22.76;40.16;94678.47;5011408;28;20785;-65
2023/04/20 10:04:07;;;;;;;10.43;9.63;;;;;;;22.11;40.54;94662.47;5011028;28;20273;-62
2023/04/20 10:06:35;;;;;;;10.32;9.25;;;;;;;22.00;40.73;94675.50;5010604;28;20627;-64
2023/04/20 10:09:03;;;;;;;12.88;9.25;;;;;;;21.91;41.25;94671.09;5012201;28;20282;-63
2023/04/20 10:11:32;;;;;;;9.52;8.73;;;;;;;22.06;41.58;94669.81;5011100;28;20305;-64
2023/04/20 10:14:02;;;;;;;9.63;8.90;;;;;;;22.30;39.97;94662.53;5010768;28;20214;-62
2023/04/20 10:16:29;;;;;;;9.27;8.40;;;;;;;22.43;39.33;94661.50;5011069;28;20223;-64
2023/04/20 10:19:01;;;;;;;10.05;9.07;;;;;;;22.43;39.77;94645.97;5011146;28;20294;-60
2023/04/20 10:21:28;;;;;;;10.45;8.48;;;;;;;22.40;40.01;94655.63;5010461;28;20200;-64
2023/04/20 10:23:57;;;;;;;9.23;8.30;;;;;;;22.19;40.17;94661.84;5010246;28;20772;-63
2023/04/20 10:26:24;;;;;;;9.98;9.27;;;;;;;22.04;40.99;94656.19;5009911;28;20641;-65
2023/04/20 10:28:51;;;;;;;9.65;8.65;;;;;;;21.70;40.79;94653.84;5011143;28;20239;-63
2023/04/20 10:31:20;;;;;;;8.98;8.35;;;;;;;21.14;42.35;94655.06;5010914;28;20236;-61
2023/04/20 10:33:55;;;;;;;9.13;8.32;;;;;;;20.61;42.97;94657.63;5010253;28;20211;-63
2023/04/20 10:36:27;;;;;;;9.10;8.40;;;;;;;20.36;44.15;94661.28;5010122;28;20234;-62
2023/04/20 10:38:54;;;;;;;9.68;8.73;;;;;;;20.19;44.59;94657.44;5010119;28;20289;-65
2023/04/20 10:41:21;;;;;;;9.75;8.93;;;;;;;19.86;45.76;94641.97;5011619;28;21167;-64
2023/04/20 10:43:48;;;;;;;9.77;8.18;;;;;;;19.39;46.83;94659.25;5009948;28;20676;-64
2023/04/20 10:46:20;;;;;;;8.82;8.02;;;;;;;19.01;47.11;94656.94;5011454;28;21249;-63
2023/04/20 10:48:51;;;;;;;8.25;7.65;;;;;;;19.06;48.86;94654.81;5010092;28;20642;-62
2023/04/20 10:51:18;;;;;;;8.43;7.82;;;;;;;19.36;48.65;94651.75;5011804;28;20242;-61
2023/04/20 10:53:45;;;;;;;9.27;8.57;;;;;;;19.74;47.27;94655.81;5009520;28;20298;-64
2023/04/20 10:56:12;;;;;;;8.57;7.55;;;;;;;19.97;47.17;94652.31;5010093;28;20301;-64
2023/04/20 10:58:39;;;;;;;8.77;8.13;;;;;;;20.11;46.16;94657.22;5010162;28;20299;-62
2023/04/20 11:01:06;;;;;;;8.05;7.55;;;;;;;20.24;45.60;94650.16;5011203;28;20277;-63
2023/04/20 11:03:34;;;;;;;7.88;7.32;;;;;;;20.36;45.72;94649.19;5009660;28;20302;-62
2023/04/20 11:06:02;;;;;;;8.05;7.50;;;;;;;20.65;44.58;94648.69;5009270;28;20235;-62
2023/04/20 11:08:39;;;;;;;7.78;7.15;;;;;;;20.76;43.91;94651.25;5010409;28;20294;-63
2023/04/20 11:11:06;;;;;;;7.97;7.38;;;;;;;20.86;42.81;94651.31;5010195;28;20310;-63
2023/04/20 11:13:33;;;;;;;6.60;6.10;;;;;;;20.86;41.06;94636.63;5009662;28;20216;-60
2023/04/20 11:16:00;;;;;;;7.82;7.13;;;;;;;21.02;41.93;94637.06;5009862;28;20749;-61
2023/04/20 11:18:29;;;;;;;7.97;7.20;;;;;;;21.53;41.00;94625.97;5010273;28;20214;-63
2023/04/20 11:20:57;;;;;;;6.82;6.25;;;;;;;21.95;39.97;94621.53;5010262;28;20206;-64
2023/04/20 11:23:26;;;;;;;7.13;6.00;;;;;;;22.13;40.48;94601.06;5010262;28;20286;-63
2023/04/20 11:25:54;;;;;;;7.38;6.80;;;;;;;22.74;39.83;94619.03;5009227;28;20218;-62
2023/04/20 11:28:20;;;;;;;7.15;6.10;;;;;;;23.00;39.26;94619.34;5009410;28;20250;-64